Time;durP1;ratioP1;P1;durP2;ratioP2;P2;SDS_P1;SDS_P2;PMS_P1;PMS_P2;Temp;Humidity;BMP_temperature;BMP_pressure;BME280_temperature;BME280_humidity;BME280_pressure;Samples;Min_cycle;Max_cycle;Signal;HPM_P1;HPM_P2
2021/11/20 00:02:31;;;;;;;9.52;6.13;;;22.50;52.70;;;;;;5172351;28;20046;-52
2021/11/20 00:05:05;;;;;;;;;;;22.50;52.60;;;;;;5167901;28;20388;-57
2021/11/20 00:07:37;;;;;;;11.65;6.82;;;22.40;52.70;;;;;;5163959;28;20483;-52
2021/11/20 00:10:12;;;;;;;10.68;5.95;;;22.40;52.80;;;;;;5166538;28;20630;-55
2021/11/20 00:12:45;;;;;;;12.60;7.47;;;22.40;52.70;;;;;;5162758;28;20375;-51
2021/11/20 00:15:22;;;;;;;12.38;6.55;;;22.40;52.80;;;;;;5168669;28;20077;-54
2021/11/20 00:17:55;;;;;;;13.93;6.10;;;22.40;52.80;;;;;;5166155;28;20057;-54
2021/11/20 00:20:29;;;;;;;;;;;22.40;52.80;;;;;;5167944;28;20049;-54
2021/11/20 00:23:02;;;;;;;13.50;6.63;;;22.30;52.80;;;;;;5172405;28;19933;-55
2021/11/20 00:25:40;;;;;;;;;;;22.40;52.90;;;;;;5166125;28;20050;-53
2021/11/20 00:28:19;;;;;;;11.90;6.28;;;22.30;52.80;;;;;;5167575;28;19925;-56
2021/11/20 00:30:57;;;;;;;12.50;6.10;;;22.30;52.90;;;;;;5169578;28;20045;-52
2021/11/20 00:33:34;;;;;;;9.00;6.20;;;22.40;52.90;;;;;;5178854;28;20061;-53
2021/11/20 00:36:09;;;;;;;9.75;6.32;;;22.40;52.90;;;;;;5167191;28;20446;-53
2021/11/20 00:38:43;;;;;;;11.68;5.75;;;22.30;52.80;;;;;;5175117;28;21098;-51
2021/11/20 00:41:20;;;;;;;10.15;5.60;;;22.40;52.80;;;;;;5156584;28;20061;-56
2021/11/20 00:43:54;;;;;;;6.72;5.25;;;22.40;52.70;;;;;;5171638;28;20049;-53
2021/11/20 00:46:29;;;;;;;14.00;5.43;;;22.30;52.70;;;;;;5174423;28;20046;-53
2021/11/20 00:49:04;;;;;;;8.90;5.30;;;22.30;52.60;;;;;;5154378;28;20089;-55
2021/11/20 00:51:37;;;;;;;10.07;6.13;;;22.30;52.70;;;;;;5143386;28;22507;-52
2021/11/20 00:54:10;;;;;;;7.03;4.97;;;22.30;52.60;;;;;;5145614;28;20463;-54
2021/11/20 00:56:43;;;;;;;7.53;5.15;;;22.30;52.60;;;;;;5142584;28;20311;-51
2021/11/20 00:59:16;;;;;;;6.88;5.03;;;22.30;52.60;;;;;;5163138;28;20045;-55
2021/11/20 01:01:55;;;;;;;8.25;5.43;;;22.30;52.50;;;;;;5164109;28;20064;-50
2021/11/20 01:04:31;;;;;;;10.90;5.07;;;22.40;52.60;;;;;;5157780;28;20046;-51
2021/11/20 01:07:06;;;;;;;8.50;5.53;;;22.30;52.70;;;;;;5153972;28;20646;-57
2021/11/20 01:09:42;;;;;;;6.93;4.60;;;22.30;52.60;;;;;;5166177;28;20527;-55
2021/11/20 01:12:22;;;;;;;9.50;5.13;;;22.30;52.60;;;;;;5163919;28;20042;-55
2021/11/20 01:14:57;;;;;;;7.93;5.10;;;22.40;52.70;;;;;;5144711;28;20053;-55
2021/11/20 01:17:33;;;;;;;7.03;4.93;;;22.30;52.60;;;;;;5164035;28;20064;-54
2021/11/20 01:20:07;;;;;;;;;;;22.30;52.60;;;;;;5160595;28;24428;-53
2021/11/20 01:22:49;;;;;;;7.63;4.57;;;22.20;52.60;;;;;;5167687;28;20420;-52
2021/11/20 01:25:43;;;;;;;7.23;5.53;;;22.30;52.70;;;;;;5164579;28;20053;-52
2021/11/20 01:28:52;;;;;;;7.80;5.00;;;22.30;52.70;;;;;;5154308;28;20300;-52
2021/11/20 01:31:38;;;;;;;7.78;5.03;;;22.30;52.70;;;;;;5155727;28;20053;-54
2021/11/20 01:34:11;;;;;;;6.22;4.72;;;22.20;52.60;;;;;;5161877;28;20045;-53
2021/11/20 01:36:47;;;;;;;6.60;4.85;;;22.30;52.70;;;;;;5146741;28;20514;-52
2021/11/20 01:39:25;;;;;;;7.10;5.22;;;22.30;52.70;;;;;;5163403;28;20434;-55
2021/11/20 01:42:30;;;;;;;6.65;5.03;;;22.30;52.70;;;;;;5165170;28;20089;-53
2021/11/20 01:45:24;;;;;;;8.80;5.07;;;22.30;52.60;;;;;;5167477;28;20049;-50
2021/11/20 01:48:24;;;;;;;6.35;4.57;;;22.20;52.60;;;;;;5164071;28;20421;-53
2021/11/20 01:51:11;;;;;;;6.55;4.53;;;22.20;52.60;;;;;;5155399;28;20338;-53
2021/11/20 01:54:00;;;;;;;8.00;5.25;;;22.20;52.50;;;;;;5156262;28;20049;-53
2021/11/20 01:56:47;;;;;;;6.25;4.88;;;22.20;52.60;;;;;;5152868;28;20045;-52
2021/11/20 01:59:56;;;;;;;7.10;5.00;;;22.30;52.70;;;;;;5161502;28;20486;-56
2021/11/20 02:03:12;;;;;;;7.57;5.00;;;22.20;52.50;;;;;;5144823;28;20041;-53
2021/11/20 02:06:18;;;;;;;6.63;4.80;;;22.30;52.70;;;;;;5143822;28;20037;-56
2021/11/20 02:09:12;;;;;;;5.97;4.55;;;22.20;52.70;;;;;;5139334;28;20041;-54
2021/11/20 02:12:18;;;;;;;5.60;4.28;;;22.20;52.70;;;;;;5147442;28;20490;-55
2021/11/20 02:14:52;;;;;;;7.15;4.78;;;22.20;52.70;;;;;;5128554;28;20529;-54
2021/11/20 02:17:35;;;;;;;5.50;4.63;;;22.20;52.70;;;;;;5139566;28;20057;-52
2021/11/20 02:20:25;;;;;;;5.68;4.18;;;22.20;52.60;;;;;;5134896;28;20313;-51
2021/11/20 02:22:57;;;;;;;8.32;4.38;;;22.20;52.60;;;;;;5128669;28;20124;-50
2021/11/20 02:25:30;;;;;;;6.07;4.55;;;22.20;52.70;;;;;;5139551;28;20411;-49
2021/11/20 02:28:12;;;;;;;5.45;4.35;;;22.20;52.60;;;;;;5139596;28;20057;-54
2021/11/20 02:30:47;;;;;;;4.97;4.40;;;22.20;52.50;;;;;;5150904;28;20061;-52
2021/11/20 02:33:31;;;;;;;5.60;4.35;;;22.20;52.50;;;;;;5146718;28;20691;-52
2021/11/20 02:36:08;;;;;;;5.50;4.43;;;22.20;52.40;;;;;;5158303;28;20068;-56
2021/11/20 02:38:58;;;;;;;5.20;4.32;;;22.20;52.50;;;;;;5162240;28;20524;-54
2021/11/20 02:41:33;;;;;;;6.35;4.30;;;22.20;52.40;;;;;;5145307;28;20050;-51
2021/11/20 02:44:07;;;;;;;8.02;4.50;;;22.20;52.40;;;;;;5151113;28;20076;-52
2021/11/20 02:46:45;;;;;;;6.03;4.50;;;22.20;52.50;;;;;;5158733;28;20056;-53
2021/11/20 02:49:18;;;;;;;4.75;3.55;;;22.20;52.40;;;;;;5163491;28;20041;-49
2021/11/20 02:52:11;;;;;;;5.35;4.28;;;22.20;52.40;;;;;;5155232;28;20054;-50
2021/11/20 02:54:44;;;;;;;6.80;4.38;;;22.20;52.40;;;;;;5163016;28;20054;-51
2021/11/20 02:57:28;;;;;;;;;;;22.20;52.40;;;;;;5147710;28;20053;-55
2021/11/20 03:00:01;;;;;;;6.15;4.20;;;22.10;52.30;;;;;;5162468;28;19932;-55
2021/11/20 03:02:41;;;;;;;4.88;3.95;;;22.10;52.40;;;;;;5162219;28;20448;-53
2021/11/20 03:05:14;;;;;;;6.63;4.30;;;22.10;52.40;;;;;;5162577;28;20068;-51
2021/11/20 03:07:47;;;;;;;4.93;3.95;;;22.10;52.40;;;;;;5144572;28;20050;-51
2021/11/20 03:10:20;;;;;;;4.40;3.85;;;22.10;52.30;;;;;;5140844;28;20045;-50
2021/11/20 03:12:53;;;;;;;4.43;3.60;;;22.10;52.30;;;;;;5149222;28;20046;-55
2021/11/20 03:15:26;;;;;;;3.92;3.10;;;22.10;53.00;;;;;;5159618;28;20053;-54
2021/11/20 03:17:58;;;;;;;4.40;3.65;;;22.10;52.30;;;;;;5166175;28;20045;-48
2021/11/20 03:20:31;;;;;;;5.85;3.55;;;22.10;52.30;;;;;;5153653;28;20049;-52
2021/11/20 03:23:11;;;;;;;4.95;3.55;;;22.10;52.20;;;;;;5159222;28;20188;-52
2021/11/20 03:25:44;;;;;;;4.30;3.80;;;22.10;52.30;;;;;;5157609;28;20046;-52
2021/11/20 03:28:16;;;;;;;5.22;3.55;;;22.10;52.20;;;;;;5152969;28;20052;-55
2021/11/20 03:30:50;;;;;;;6.10;3.85;;;22.10;52.20;;;;;;5168080;28;20057;-55
2021/11/20 03:33:24;;;;;;;3.85;2.83;;;22.10;52.20;;;;;;5149265;28;20037;-51
2021/11/20 03:35:57;;;;;;;4.55;3.65;;;22.10;52.20;;;;;;5161071;28;20049;-55
2021/11/20 03:38:32;;;;;;;3.95;3.55;;;22.10;52.10;;;;;;5151144;28;20399;-53
2021/11/20 03:41:10;;;;;;;4.20;3.80;;;22.10;52.10;;;;;;5163515;28;20054;-54
2021/11/20 03:43:44;;;;;;;6.55;3.50;;;22.10;52.10;;;;;;5161959;28;20499;-55
2021/11/20 03:46:17;;;;;;;3.90;3.15;;;22.10;52.10;;;;;;5162190;28;20050;-52
2021/11/20 03:48:50;;;;;;;3.92;2.70;;;22.10;52.10;;;;;;5156538;28;20069;-54
2021/11/20 03:51:22;;;;;;;3.58;3.28;;;22.10;52.10;;;;;;5160677;28;20050;-55
2021/11/20 03:53:55;;;;;;;4.13;3.17;;;22.10;52.10;;;;;;5142172;28;20406;-54
2021/11/20 03:56:29;;;;;;;3.87;3.23;;;22.10;52.20;;;;;;5153085;28;20049;-51
2021/11/20 03:59:03;;;;;;;4.10;3.00;;;22.10;52.20;;;;;;5157982;28;21345;-53
2021/11/20 04:01:36;;;;;;;4.57;3.20;;;22.10;52.10;;;;;;5154155;28;20045;-53
2021/11/20 04:04:09;;;;;;;5.43;3.28;;;22.10;52.10;;;;;;5169477;28;20052;-53
2021/11/20 04:06:45;;;;;;;8.75;3.63;;;22.10;52.10;;;;;;5166936;28;20963;-51
2021/11/20 04:09:18;;;;;;;6.90;3.20;;;22.10;52.10;;;;;;5159246;28;20050;-51
2021/11/20 04:11:53;;;;;;;5.45;3.30;;;22.10;52.10;;;;;;5157974;28;20060;-56
2021/11/20 04:14:27;;;;;;;5.93;3.30;;;22.10;52.10;;;;;;5163106;28;20514;-53
2021/11/20 04:17:00;;;;;;;;;;;22.10;52.10;;;;;;5148726;28;20050;-52
2021/11/20 04:19:33;;;;;;;5.22;2.88;;;22.00;52.00;;;;;;5159189;28;19952;-51
2021/11/20 04:22:06;;;;;;;2.95;2.60;;;22.00;52.10;;;;;;5159057;28;20056;-52
2021/11/20 04:24:39;;;;;;;;;;;22.00;52.10;;;;;;5163103;28;20104;-53
2021/11/20 04:27:22;;;;;;;3.65;2.75;;;21.90;52.00;;;;;;5160928;28;19930;-54
2021/11/20 04:30:15;;;;;;;2.72;2.42;;;22.00;52.10;;;;;;5161065;28;20530;-52
2021/11/20 04:32:50;;;;;;;3.60;3.00;;;22.00;52.10;;;;;;5154993;28;20527;-53
2021/11/20 04:35:25;;;;;;;3.35;2.70;;;22.00;52.70;;;;;;5203992;23;20071;-55
2021/11/20 04:37:58;;;;;;;3.33;2.58;;;22.00;52.00;;;;;;5176330;28;20059;-53
2021/11/20 04:40:33;;;;;;;4.53;2.85;;;22.00;52.00;;;;;;5188474;28;20210;-52
2021/11/20 04:43:06;;;;;;;3.70;2.67;;;22.00;52.10;;;;;;5164578;28;20036;-57
2021/11/20 04:45:41;;;;;;;5.15;2.70;;;22.00;52.00;;;;;;5139453;28;20061;-57
2021/11/20 04:48:13;;;;;;;4.23;2.80;;;22.00;52.00;;;;;;5159006;28;20080;-53
2021/11/20 04:50:57;;;;;;;6.28;2.80;;;22.00;52.20;;;;;;5153334;28;20301;-55
2021/11/20 04:53:32;;;;;;;6.72;2.95;;;22.00;52.20;;;;;;5146560;28;20053;-55
2021/11/20 04:56:07;;;;;;;5.07;2.60;;;22.00;52.30;;;;;;5159496;28;20041;-56
2021/11/20 04:58:40;;;;;;;7.32;3.13;;;22.00;52.30;;;;;;5148398;28;20525;-57
2021/11/20 05:01:14;;;;;;;5.57;3.00;;;22.00;52.50;;;;;;5169720;28;20531;-53
2021/11/20 05:03:50;;;;;;;13.45;3.22;;;22.00;52.50;;;;;;5171326;28;20306;-56
2021/11/20 05:06:25;;;;;;;7.60;2.85;;;22.00;52.50;;;;;;5164040;28;20050;-56
2021/11/20 05:08:59;;;;;;;11.93;2.60;;;22.10;52.70;;;;;;5172382;28;20053;-57
2021/11/20 05:11:34;;;;;;;9.48;3.08;;;22.00;52.70;;;;;;5170969;28;20049;-56
2021/11/20 05:14:08;;;;;;;5.60;3.08;;;22.00;52.80;;;;;;5164205;28;20056;-51
2021/11/20 05:16:41;;;;;;;7.63;2.83;;;22.00;52.80;;;;;;5186532;28;20056;-55
2021/11/20 05:19:14;;;;;;;;;;;22.10;52.90;;;;;;5163884;28;20041;-53
2021/11/20 05:21:51;;;;;;;7.82;2.70;;;22.00;53.00;;;;;;5157957;28;19925;-51
2021/11/20 05:24:26;;;;;;;8.30;2.85;;;22.00;53.00;;;;;;5172449;28;20510;-55
2021/11/20 05:27:02;;;;;;;9.40;3.00;;;22.00;53.00;;;;;;5161107;28;21382;-55
2021/11/20 05:32:14;;;;;;;4.88;2.42;;;22.00;53.10;;;;;;5157709;28;20056;-56
2021/11/20 05:34:50;;;;;;;6.55;3.03;;;22.00;53.30;;;;;;5149854;28;20045;-57
2021/11/20 05:37:24;;;;;;;10.07;3.00;;;22.00;53.30;;;;;;5172168;28;20067;-58
2021/11/20 05:39:58;;;;;;;8.32;2.92;;;22.00;53.30;;;;;;5129298;28;20054;-56
2021/11/20 05:42:32;;;;;;;11.00;3.10;;;22.10;53.30;;;;;;5131369;28;20397;-56
2021/11/20 05:45:05;;;;;;;7.25;2.75;;;22.10;53.30;;;;;;5131939;28;20053;-58
2021/11/20 05:47:37;;;;;;;;;;;22.10;53.30;;;;;;5177448;28;20494;-57
2021/11/20 05:50:11;;;;;;;6.10;2.50;;;22.10;53.20;;;;;;5163263;28;19928;-57
2021/11/20 05:52:45;;;;;;;8.30;2.28;;;22.10;53.30;;;;;;5155718;28;20080;-54
2021/11/20 05:55:22;;;;;;;5.85;2.65;;;22.20;53.30;;;;;;5148436;28;20729;-57
2021/11/20 05:58:00;;;;;;;5.32;2.60;;;22.20;53.30;;;;;;5182513;28;20454;-53
2021/11/20 06:00:35;;;;;;;8.90;2.80;;;22.20;53.30;;;;;;5160291;28;20053;-55
2021/11/20 06:03:10;;;;;;;8.65;3.00;;;22.20;53.20;;;;;;5181986;28;20046;-56
2021/11/20 06:05:52;;;;;;;8.10;2.60;;;22.20;53.30;;;;;;5167748;28;20049;-56
2021/11/20 06:08:26;;;;;;;8.07;2.75;;;22.20;53.30;;;;;;5169226;28;20060;-52
2021/11/20 06:11:01;;;;;;;6.82;3.00;;;22.30;53.30;;;;;;5151059;28;20044;-53
2021/11/20 06:13:35;;;;;;;4.47;2.17;;;22.20;53.20;;;;;;5163223;28;20048;-56
2021/11/20 06:16:14;;;;;;;4.68;2.35;;;22.20;53.20;;;;;;5154594;28;20045;-57
2021/11/20 06:18:47;;;;;;;8.45;2.88;;;22.30;53.30;;;;;;5162310;28;20049;-57
2021/11/20 06:21:20;;;;;;;8.45;2.95;;;22.30;53.30;;;;;;5147433;28;20053;-55
2021/11/20 06:23:53;;;;;;;4.72;2.25;;;22.30;53.30;;;;;;5176002;28;20049;-55
2021/11/20 06:26:26;;;;;;;5.63;2.38;;;22.30;53.30;;;;;;5151175;28;20049;-56
2021/11/20 06:28:58;;;;;;;9.00;2.87;;;22.30;53.40;;;;;;5166251;28;20049;-53
2021/11/20 06:31:34;;;;;;;9.50;3.15;;;22.30;53.40;;;;;;5144491;28;20049;-52
2021/11/20 06:34:25;;;;;;;5.53;2.25;;;22.40;53.50;;;;;;5179990;28;20670;-56
2021/11/20 06:37:20;;;;;;;12.05;2.70;;;22.30;53.50;;;;;;5161401;28;20150;-57
2021/11/20 06:40:04;;;;;;;12.63;2.70;;;22.40;53.50;;;;;;5151484;28;20619;-53
2021/11/20 06:42:38;;;;;;;8.63;2.50;;;22.40;53.50;;;;;;5155683;28;21414;-56
2021/11/20 06:45:15;;;;;;;7.82;2.55;;;22.40;53.60;;;;;;5159808;28;20048;-55
2021/11/20 06:47:49;;;;;;;4.45;2.25;;;22.40;53.60;;;;;;5161316;28;20053;-53
2021/11/20 06:50:23;;;;;;;6.05;2.42;;;22.40;53.60;;;;;;5140642;28;20369;-52
2021/11/20 06:53:16;;;;;;;7.03;2.50;;;22.40;53.60;;;;;;5157281;28;20064;-54
2021/11/20 06:56:15;;;;;;;15.45;2.60;;;22.40;53.60;;;;;;5146537;28;20732;-55
2021/11/20 07:02:05;;;;;;;10.30;2.45;;;22.40;53.60;;;;;;5161903;28;20049;-56
2021/11/20 07:04:38;;;;;;;4.63;2.55;;;22.40;53.70;;;;;;5166802;28;20057;-57
2021/11/20 07:07:13;;;;;;;8.55;2.25;;;22.40;53.70;;;;;;5161506;28;20067;-51
2021/11/20 07:09:48;;;;;;;5.50;2.25;;;22.40;53.70;;;;;;5165514;28;20038;-55
2021/11/20 07:12:20;;;;;;;8.43;2.33;;;22.40;53.70;;;;;;5163003;28;20873;-53
2021/11/20 07:14:53;;;;;;;11.98;2.65;;;22.50;53.70;;;;;;5173351;28;20417;-52
2021/11/20 07:17:26;;;;;;;12.43;3.28;;;22.50;53.80;;;;;;5155768;28;20494;-58
2021/11/20 07:20:28;;;;;;;4.90;2.45;;;22.50;54.40;;;;;;5164454;28;20056;-53
2021/11/20 07:23:19;;;;;;;10.48;2.42;;;22.40;53.80;;;;;;5159499;28;20049;-52
2021/11/20 07:25:52;;;;;;;5.50;2.30;;;22.50;53.80;;;;;;5135061;28;20653;-54
2021/11/20 07:28:26;;;;;;;11.18;2.42;;;22.50;53.80;;;;;;5168305;28;20694;-55
2021/11/20 07:30:58;;;;;;;17.17;2.60;;;22.50;53.90;;;;;;5136574;28;20049;-56
2021/11/20 07:33:32;;;;;;;9.90;2.22;;;22.50;53.80;;;;;;5152289;28;20514;-52
2021/11/20 07:36:07;;;;;;;7.35;2.10;;;22.50;53.90;;;;;;5169134;28;20041;-56
2021/11/20 07:38:51;;;;;;;9.10;2.45;;;22.40;53.80;;;;;;5170999;28;20513;-54
2021/11/20 07:41:28;;;;;;;5.72;2.72;;;22.50;54.00;;;;;;5157439;28;20482;-55
2021/11/20 07:44:07;;;;;;;13.18;2.45;;;22.50;53.90;;;;;;5179368;28;20041;-57
2021/11/20 07:46:40;;;;;;;4.53;1.85;;;22.50;53.90;;;;;;5160694;28;20450;-52
2021/11/20 07:49:13;;;;;;;11.02;2.60;;;22.50;53.90;;;;;;5173579;28;20049;-56
2021/11/20 07:51:46;;;;;;;8.07;2.40;;;22.50;53.90;;;;;;5175047;28;20042;-57
2021/11/20 07:54:20;;;;;;;9.55;2.75;;;22.50;53.90;;;;;;5180637;28;20522;-56
2021/11/20 07:57:22;;;;;;;7.50;2.92;;;22.50;53.90;;;;;;5165364;28;20061;-54
2021/11/20 08:00:01;;;;;;;8.30;2.30;;;22.50;54.00;;;;;;5149362;28;20089;-56
2021/11/20 08:03:05;;;;;;;7.07;2.38;;;22.50;53.90;;;;;;5148364;28;20407;-55
2021/11/20 08:06:07;;;;;;;5.97;2.35;;;22.50;54.00;;;;;;5149975;28;20065;-56
2021/11/20 08:09:05;;;;;;;5.78;2.30;;;22.50;54.00;;;;;;5155038;28;20706;-55
2021/11/20 08:12:05;;;;;;;6.82;2.30;;;22.50;54.00;;;;;;5140968;28;20049;-56
2021/11/20 08:14:55;;;;;;;6.22;1.80;;;22.50;54.00;;;;;;5169787;28;20405;-57
2021/11/20 08:17:48;;;;;;;6.72;2.10;;;22.50;54.00;;;;;;5169642;28;20195;-51
2021/11/20 08:20:47;;;;;;;6.85;2.55;;;22.50;54.60;;;;;;5156355;28;20065;-55
2021/11/20 08:23:46;;;;;;;3.28;2.10;;;22.50;54.00;;;;;;5160869;28;20060;-54
2021/11/20 08:26:20;;;;;;;7.57;1.90;;;22.50;54.00;;;;;;5155482;28;20041;-57
2021/11/20 08:28:53;;;;;;;3.60;1.90;;;22.50;54.00;;;;;;5170416;28;20045;-57
2021/11/20 08:31:25;;;;;;;9.13;2.20;;;22.50;54.10;;;;;;5167281;28;20052;-55
2021/11/20 08:34:17;;;;;;;6.47;1.92;;;22.50;54.10;;;;;;5155876;28;20045;-54
2021/11/20 08:37:02;;;;;;;4.33;2.03;;;22.50;54.10;;;;;;5161436;28;20510;-53
2021/11/20 08:39:39;;;;;;;4.57;2.25;;;22.50;54.10;;;;;;5173372;28;20803;-53
2021/11/20 08:42:15;;;;;;;5.18;2.25;;;22.50;54.20;;;;;;5191045;28;20493;-57
2021/11/20 08:44:48;;;;;;;4.40;1.88;;;22.60;54.20;;;;;;5172345;28;20042;-54
2021/11/20 08:47:24;;;;;;;5.97;2.38;;;22.60;54.20;;;;;;5188462;28;20067;-55
2021/11/20 08:49:56;;;;;;;8.32;2.05;;;22.60;54.30;;;;;;5160086;28;20056;-53
2021/11/20 08:52:29;;;;;;;8.57;2.03;;;22.60;54.30;;;;;;5182414;28;20041;-51
2021/11/20 08:55:01;;;;;;;13.38;2.13;;;22.60;54.30;;;;;;5171421;28;20068;-55
2021/11/20 08:57:36;;;;;;;6.35;1.88;;;22.60;54.30;;;;;;5179120;28;20048;-56
2021/11/20 09:00:29;;;;;;;7.60;2.13;;;22.60;54.30;;;;;;5163302;28;20367;-53
2021/11/20 09:03:27;;;;;;;6.40;2.20;;;22.60;54.30;;;;;;5151333;28;20050;-53
2021/11/20 09:06:47;;;;;;;17.40;2.75;;;22.60;54.30;;;;;;5147521;28;20049;-49
2021/11/20 09:09:33;;;;;;;8.65;2.13;;;22.60;54.40;;;;;;5153398;28;21530;-57
2021/11/20 09:12:20;;;;;;;5.75;2.10;;;22.60;54.50;;;;;;5183945;28;20036;-55
2021/11/20 09:14:59;;;;;;;7.85;2.30;;;22.60;54.50;;;;;;5142876;28;20050;-55
2021/11/20 09:17:43;;;;;;;3.35;2.10;;;22.60;54.50;;;;;;5169904;28;20046;-50
2021/11/20 09:20:22;;;;;;;7.43;2.03;;;22.60;54.50;;;;;;5167375;28;20049;-52
2021/11/20 09:22:55;;;;;;;14.52;2.65;;;22.60;54.50;;;;;;5148991;28;20053;-53
2021/11/20 09:25:54;;;;;;;6.78;2.08;;;22.60;54.50;;;;;;5141970;28;20492;-53
2021/11/20 09:28:47;;;;;;;12.57;2.22;;;22.60;54.60;;;;;;5152934;28;20064;-52
2021/11/20 09:31:20;;;;;;;14.25;2.38;;;22.60;54.50;;;;;;5172736;28;20041;-56
2021/11/20 09:33:56;;;;;;;;;;;22.60;54.50;;;;;;5162227;28;20517;-54
2021/11/20 09:36:29;;;;;;;9.82;2.20;;;22.50;54.60;;;;;;5187043;28;19932;-55
2021/11/20 09:39:17;;;;;;;9.95;2.55;;;22.60;54.70;;;;;;5165460;28;20056;-52
2021/11/20 09:42:08;;;;;;;9.45;2.42;;;22.60;54.70;;;;;;5174891;28;20056;-57
2021/11/20 09:44:49;;;;;;;8.32;2.63;;;22.60;55.20;;;;;;5157909;28;20052;-51
2021/11/20 09:47:30;;;;;;;6.43;2.20;;;22.60;54.70;;;;;;5163707;28;20115;-54
2021/11/20 09:50:20;;;;;;;6.35;2.30;;;22.60;54.60;;;;;;5152831;28;20437;-56
2021/11/20 09:52:54;;;;;;;7.68;2.28;;;22.60;54.70;;;;;;5149536;28;20050;-55
2021/11/20 09:55:34;;;;;;;13.10;2.50;;;22.60;54.90;;;;;;5175608;28;20278;-56
2021/11/20 09:58:21;;;;;;;11.45;2.53;;;22.60;55.50;;;;;;5142735;28;20311;-55
2021/11/20 10:00:59;;;;;;;11.77;3.30;;;22.60;54.90;;;;;;5168257;28;20482;-55
2021/11/20 10:03:41;;;;;;;13.07;2.85;;;22.60;54.80;;;;;;5170430;28;20053;-54
2021/11/20 10:06:20;;;;;;;14.07;2.92;;;22.70;54.90;;;;;;5180932;28;20585;-57
2021/11/20 10:09:13;;;;;;;18.98;2.92;;;22.70;54.90;;;;;;5163437;28;20445;-56
2021/11/20 10:11:52;;;;;;;12.07;3.28;;;22.70;54.80;;;;;;5185728;28;20094;-54
2021/11/20 10:14:32;;;;;;;11.70;2.80;;;22.70;54.80;;;;;;5163393;28;20510;-54
2021/11/20 10:17:38;;;;;;;14.27;2.88;;;22.70;54.60;;;;;;5165878;28;20083;-51
2021/11/20 10:20:20;;;;;;;11.75;2.28;;;22.70;54.60;;;;;;5160355;28;20440;-52
2021/11/20 10:23:11;;;;;;;10.82;2.50;;;22.70;54.40;;;;;;5161207;28;20057;-55
2021/11/20 10:26:15;;;;;;;13.07;2.03;;;22.70;54.40;;;;;;5171407;28;20745;-55
2021/11/20 10:29:00;;;;;;;9.55;2.40;;;22.70;54.20;;;;;;5165872;28;20670;-52
2021/11/20 10:31:36;;;;;;;4.35;2.22;;;22.60;54.20;;;;;;5153067;28;20058;-53
2021/11/20 10:34:33;;;;;;;10.43;2.47;;;22.60;54.10;;;;;;5161123;28;20717;-52
2021/11/20 10:37:33;;;;;;;6.65;2.38;;;22.60;54.60;;;;;;5147871;28;20840;-54
2021/11/20 10:40:26;;;;;;;7.70;1.90;;;22.60;53.90;;;;;;5170675;23;20800;-55
2021/11/20 10:43:21;;;;;;;8.25;2.05;;;22.60;53.90;;;;;;5146178;28;20057;-53
2021/11/20 10:46:14;;;;;;;6.75;2.72;;;22.60;53.80;;;;;;5161721;28;20073;-57
2021/11/20 10:49:13;;;;;;;13.57;2.77;;;22.60;53.90;;;;;;5151894;28;20053;-59
2021/11/20 10:51:58;;;;;;;5.93;2.33;;;22.60;54.00;;;;;;5151108;28;20052;-49
2021/11/20 10:54:55;;;;;;;7.30;1.83;;;22.60;53.20;;;;;;5169993;28;20045;-52
2021/11/20 10:58:05;;;;;;;10.77;2.38;;;22.60;53.30;;;;;;5171541;28;20042;-55
2021/11/20 11:00:59;;;;;;;10.25;2.53;;;22.60;53.30;;;;;;5163232;28;20061;-55
2021/11/20 11:03:43;;;;;;;11.77;1.92;;;22.60;53.30;;;;;;5166127;28;20057;-54
2021/11/20 11:06:41;;;;;;;7.35;2.00;;;22.60;53.40;;;;;;5126962;28;21077;-56
2021/11/20 11:09:20;;;;;;;14.50;2.45;;;22.60;53.60;;;;;;5153751;28;20638;-56
2021/11/20 11:12:21;;;;;;;9.02;2.80;;;22.60;53.90;;;;;;5161280;28;20053;-58
2021/11/20 11:15:25;;;;;;;9.13;2.28;;;22.70;54.30;;;;;;5159406;28;20394;-53
2021/11/20 11:18:18;;;;;;;9.32;1.75;;;22.60;54.30;;;;;;5149633;28;20053;-53
2021/11/20 11:21:28;;;;;;;20.00;3.53;;;22.60;54.60;;;;;;5157279;28;20049;-56
2021/11/20 11:24:22;;;;;;;6.50;2.13;;;22.70;54.90;;;;;;5166848;28;20055;-55
2021/11/20 11:27:12;;;;;;;7.57;2.20;;;22.70;54.80;;;;;;5163938;28;20041;-58
2021/11/20 11:30:24;;;;;;;11.07;1.92;;;22.70;55.00;;;;;;5160004;28;20512;-54
2021/11/20 11:32:57;;;;;;;5.97;2.00;;;22.70;54.90;;;;;;5148214;28;20042;-54
2021/11/20 11:35:34;;;;;;;10.70;2.10;;;22.70;54.90;;;;;;5149092;28;20042;-58
2021/11/20 11:38:19;;;;;;;6.20;2.00;;;22.70;54.90;;;;;;5142171;28;20057;-55
2021/11/20 11:40:55;;;;;;;5.32;1.83;;;22.70;55.00;;;;;;5145854;28;20410;-55
2021/11/20 11:44:04;;;;;;;4.38;1.45;;;22.70;55.00;;;;;;5154425;28;20064;-59
2021/11/20 11:46:56;;;;;;;8.23;1.90;;;22.70;54.90;;;;;;5133523;28;20065;-59
2021/11/20 11:50:07;;;;;;;7.97;1.83;;;22.70;54.90;;;;;;5154933;28;20048;-57
2021/11/20 11:53:09;;;;;;;8.82;2.03;;;22.70;55.00;;;;;;5152299;28;20382;-59
2021/11/20 11:55:46;;;;;;;9.73;2.35;;;22.70;55.00;;;;;;5141560;28;20061;-59
2021/11/20 11:58:33;;;;;;;7.15;1.98;;;22.70;55.00;;;;;;5161872;28;20053;-56
2021/11/20 12:01:14;;;;;;;12.27;2.40;;;22.70;55.00;;;;;;5153018;28;20323;-58
2021/11/20 12:04:13;;;;;;;5.65;2.53;;;22.80;55.40;;;;;;5156129;28;20551;-55
2021/11/20 12:06:45;;;;;;;8.93;1.90;;;22.80;55.30;;;;;;5141109;28;20065;-59
2021/11/20 12:09:24;;;;;;;11.38;1.92;;;22.80;55.10;;;;;;5149986;28;20517;-56
2021/11/20 12:12:10;;;;;;;9.18;2.15;;;22.80;55.10;;;;;;5155867;28;20627;-54
2021/11/20 12:14:45;;;;;;;12.35;1.92;;;22.70;55.10;;;;;;5162664;28;20426;-57
2021/11/20 12:17:30;;;;;;;11.20;2.05;;;22.70;55.20;;;;;;5152994;28;20133;-57
2021/11/20 12:20:06;;;;;;;5.00;1.83;;;22.80;55.30;;;;;;5170278;28;20046;-58
2021/11/20 12:23:11;;;;;;;6.93;1.75;;;22.80;55.30;;;;;;5157351;28;20066;-57
2021/11/20 12:25:43;;;;;;;4.88;1.73;;;22.80;55.20;;;;;;5182156;28;20064;-57
2021/11/20 12:28:55;;;;;;;8.35;1.85;;;22.80;55.30;;;;;;5143540;28;20046;-56
2021/11/20 12:31:54;;;;;;;6.57;1.70;;;22.80;55.30;;;;;;5095652;28;20550;-56
2021/11/20 12:34:45;;;;;;;9.60;1.83;;;22.80;55.40;;;;;;5148018;28;20057;-58
2021/11/20 12:37:37;;;;;;;6.45;2.38;;;22.80;55.40;;;;;;5157031;28;20367;-57
2021/11/20 12:40:22;;;;;;;10.60;2.20;;;22.80;55.40;;;;;;5163706;28;20065;-59
2021/11/20 12:43:01;;;;;;;10.20;2.10;;;22.80;55.40;;;;;;5158487;28;20053;-57
2021/11/20 12:45:39;;;;;;;5.70;1.95;;;22.80;55.50;;;;;;5138649;28;20054;-56
2021/11/20 12:48:31;;;;;;;3.33;1.40;;;22.80;55.50;;;;;;5147985;28;20053;-56
2021/11/20 12:51:18;;;;;;;3.60;1.80;;;22.80;55.40;;;;;;5147288;28;20173;-59
2021/11/20 12:53:50;;;;;;;5.53;1.77;;;22.80;55.40;;;;;;5146329;28;20049;-54
2021/11/20 12:56:40;;;;;;;6.65;1.65;;;22.80;55.40;;;;;;5157955;28;20042;-56
2021/11/20 12:59:24;;;;;;;7.68;1.80;;;22.80;55.40;;;;;;5162446;28;20128;-56
2021/11/20 13:02:08;;;;;;;4.20;1.70;;;22.80;55.40;;;;;;5158653;28;21168;-57
2021/11/20 13:04:45;;;;;;;;;;;22.80;55.60;;;;;;5151868;28;20041;-56
2021/11/20 13:07:28;;;;;;;3.45;1.48;;;22.80;55.50;;;;;;5159910;28;20489;-58
2021/11/20 13:10:21;;;;;;;7.75;1.80;;;22.80;55.60;;;;;;5162548;28;20045;-54
2021/11/20 13:13:15;;;;;;;5.45;1.52;;;22.80;55.60;;;;;;5168943;28;20864;-55
2021/11/20 13:16:11;;;;;;;8.95;2.95;;;22.80;55.70;;;;;;5157058;28;20045;-57
2021/11/20 13:19:13;;;;;;;5.40;1.63;;;22.80;55.70;;;;;;5145360;28;20502;-55
2021/11/20 13:21:52;;;;;;;8.85;1.77;;;22.80;55.70;;;;;;5166297;28;20145;-58
2021/11/20 13:24:31;;;;;;;5.05;1.38;;;22.80;55.60;;;;;;5169359;28;20049;-58
2021/11/20 13:27:04;;;;;;;7.38;1.73;;;22.80;55.50;;;;;;5165131;28;20042;-56
2021/11/20 13:29:42;;;;;;;5.65;1.80;;;22.80;55.40;;;;;;5162565;28;20045;-56
2021/11/20 13:32:17;;;;;;;4.07;1.50;;;22.80;55.40;;;;;;5139381;28;20049;-58
2021/11/20 13:34:56;;;;;;;3.40;1.70;;;22.80;55.30;;;;;;5161248;28;20064;-58
2021/11/20 13:37:28;;;;;;;7.45;2.03;;;22.80;55.40;;;;;;5152889;28;20092;-55
2021/11/20 13:40:01;;;;;;;4.82;1.52;;;22.80;55.30;;;;;;5153717;28;20733;-58
2021/11/20 13:42:54;;;;;;;6.43;1.50;;;22.80;55.30;;;;;;5167961;28;20492;-57
2021/11/20 13:45:28;;;;;;;3.83;1.65;;;22.80;55.20;;;;;;5151677;28;20037;-58
2021/11/20 13:48:01;;;;;;;12.20;2.42;;;22.80;55.20;;;;;;5151543;28;20053;-54
2021/11/20 13:50:41;;;;;;;8.83;2.10;;;22.80;55.10;;;;;;5153906;28;20414;-54
2021/11/20 13:53:27;;;;;;;16.13;2.67;;;22.80;55.20;;;;;;5167588;28;20053;-55
2021/11/20 13:56:06;;;;;;;8.77;2.25;;;22.80;55.50;;;;;;5177525;28;20038;-55
2021/11/20 13:58:41;;;;;;;7.55;2.10;;;22.80;55.40;;;;;;5168674;28;20054;-57
2021/11/20 14:01:16;;;;;;;10.82;2.65;;;22.90;55.60;;;;;;5162503;28;20054;-54
2021/11/20 14:04:00;;;;;;;6.63;2.40;;;22.80;55.60;;;;;;5152573;28;20497;-56
2021/11/20 14:06:33;;;;;;;7.32;2.47;;;22.90;56.40;;;;;;5167214;28;20513;-58
2021/11/20 14:09:15;;;;;;;32.00;2.83;;;22.90;55.70;;;;;;5159884;28;20054;-56